sensor_id;sensor_type;location;lat;lon;timestamp;P1;durP1;ratioP1;P2;durP2;ratioP2
22172;SDS011;11252;50.596;17.648;2022-10-16T00:01:38;12.00;;;9.30;;
22172;SDS011;11252;50.596;17.648;2022-10-16T00:04:05;10.87;;;9.70;;
22172;SDS011;11252;50.596;17.648;2022-10-16T00:06:33;13.50;;;10.77;;
22172;SDS011;11252;50.596;17.648;2022-10-16T00:09:00;12.97;;;11.00;;
22172;SDS011;11252;50.596;17.648;2022-10-16T00:11:30;13.33;;;10.57;;
22172;SDS011;11252;50.596;17.648;2022-10-16T00:14:05;10.53;;;9.23;;
22172;SDS011;11252;50.596;17.648;2022-10-16T00:16:34;20.10;;;13.03;;
22172;SDS011;11252;50.596;17.648;2022-10-16T00:19:02;30.73;;;18.93;;
22172;SDS011;11252;50.596;17.648;2022-10-16T00:21:33;48.00;;;31.47;;
22172;SDS011;11252;50.596;17.648;2022-10-16T00:24:02;29.63;;;22.83;;
22172;SDS011;11252;50.596;17.648;2022-10-16T00:26:32;20.93;;;17.40;;
22172;SDS011;11252;50.596;17.648;2022-10-16T00:29:01;19.87;;;16.47;;
22172;SDS011;11252;50.596;17.648;2022-10-16T00:31:29;17.43;;;14.53;;
22172;SDS011;11252;50.596;17.648;2022-10-16T00:33:57;15.07;;;13.40;;
22172;SDS011;11252;50.596;17.648;2022-10-16T00:36:25;16.87;;;14.33;;
22172;SDS011;11252;50.596;17.648;2022-10-16T00:38:54;16.27;;;14.33;;
22172;SDS011;11252;50.596;17.648;2022-10-16T00:41:23;19.27;;;15.53;;
22172;SDS011;11252;50.596;17.648;2022-10-16T00:43:53;19.87;;;16.23;;
22172;SDS011;11252;50.596;17.648;2022-10-16T00:46:23;19.50;;;15.77;;
22172;SDS011;11252;50.596;17.648;2022-10-16T00:51:52;20.37;;;15.40;;
22172;SDS011;11252;50.596;17.648;2022-10-16T00:54:23;17.57;;;15.47;;
22172;SDS011;11252;50.596;17.648;2022-10-16T00:56:54;20.60;;;15.43;;
22172;SDS011;11252;50.596;17.648;2022-10-16T00:59:25;31.40;;;26.53;;
22172;SDS011;11252;50.596;17.648;2022-10-16T01:02:03;23.70;;;18.30;;
22172;SDS011;11252;50.596;17.648;2022-10-16T01:04:33;22.87;;;18.03;;
22172;SDS011;11252;50.596;17.648;2022-10-16T01:07:09;26.77;;;19.30;;
22172;SDS011;11252;50.596;17.648;2022-10-16T01:15:37;20.63;;;17.20;;
22172;SDS011;11252;50.596;17.648;2022-10-16T01:18:44;21.70;;;18.23;;
22172;SDS011;11252;50.596;17.648;2022-10-16T01:24:02;21.97;;;19.23;;
22172;SDS011;11252;50.596;17.648;2022-10-16T01:29:35;22.47;;;18.57;;
22172;SDS011;11252;50.596;17.648;2022-10-16T01:37:54;20.20;;;17.23;;
22172;SDS011;11252;50.596;17.648;2022-10-16T01:40:36;23.50;;;18.60;;
22172;SDS011;11252;50.596;17.648;2022-10-16T01:43:10;22.90;;;18.63;;
22172;SDS011;11252;50.596;17.648;2022-10-16T01:45:47;22.33;;;18.73;;
22172;SDS011;11252;50.596;17.648;2022-10-16T01:48:17;21.97;;;17.87;;
22172;SDS011;11252;50.596;17.648;2022-10-16T01:50:50;20.80;;;17.97;;
22172;SDS011;11252;50.596;17.648;2022-10-16T01:53:29;26.47;;;18.70;;
22172;SDS011;11252;50.596;17.648;2022-10-16T01:55:57;24.93;;;19.80;;
22172;SDS011;11252;50.596;17.648;2022-10-16T01:58:27;21.83;;;18.57;;
22172;SDS011;11252;50.596;17.648;2022-10-16T02:01:02;23.83;;;19.30;;
22172;SDS011;11252;50.596;17.648;2022-10-16T02:03:31;21.77;;;18.10;;
22172;SDS011;11252;50.596;17.648;2022-10-16T02:06:01;24.17;;;18.50;;
22172;SDS011;11252;50.596;17.648;2022-10-16T02:08:28;26.80;;;18.07;;
22172;SDS011;11252;50.596;17.648;2022-10-16T02:10:57;22.97;;;18.40;;
22172;SDS011;11252;50.596;17.648;2022-10-16T02:15:59;25.30;;;18.43;;
22172;SDS011;11252;50.596;17.648;2022-10-16T02:18:27;22.80;;;18.50;;
22172;SDS011;11252;50.596;17.648;2022-10-16T02:20:59;23.53;;;18.93;;
22172;SDS011;11252;50.596;17.648;2022-10-16T02:26:13;25.57;;;19.23;;
22172;SDS011;11252;50.596;17.648;2022-10-16T02:28:46;25.07;;;20.13;;
22172;SDS011;11252;50.596;17.648;2022-10-16T02:31:22;26.27;;;21.87;;
22172;SDS011;11252;50.596;17.648;2022-10-16T02:33:55;27.03;;;20.97;;
22172;SDS011;11252;50.596;17.648;2022-10-16T02:36:26;27.07;;;21.90;;
22172;SDS011;11252;50.596;17.648;2022-10-16T02:38:53;28.27;;;21.83;;
22172;SDS011;11252;50.596;17.648;2022-10-16T02:41:22;27.53;;;20.90;;
22172;SDS011;11252;50.596;17.648;2022-10-16T02:43:50;29.00;;;22.10;;
22172;SDS011;11252;50.596;17.648;2022-10-16T02:46:17;28.43;;;22.17;;
22172;SDS011;11252;50.596;17.648;2022-10-16T02:48:45;30.77;;;22.93;;
22172;SDS011;11252;50.596;17.648;2022-10-16T02:51:13;31.63;;;24.10;;
22172;SDS011;11252;50.596;17.648;2022-10-16T02:53:40;29.13;;;24.17;;
22172;SDS011;11252;50.596;17.648;2022-10-16T02:56:08;32.00;;;25.47;;
22172;SDS011;11252;50.596;17.648;2022-10-16T02:58:35;30.37;;;24.70;;
22172;SDS011;11252;50.596;17.648;2022-10-16T03:01:03;36.50;;;25.57;;
22172;SDS011;11252;50.596;17.648;2022-10-16T03:03:30;32.37;;;24.10;;
22172;SDS011;11252;50.596;17.648;2022-10-16T03:05:57;32.30;;;25.60;;
22172;SDS011;11252;50.596;17.648;2022-10-16T03:08:25;34.40;;;24.80;;
22172;SDS011;11252;50.596;17.648;2022-10-16T03:10:52;32.57;;;24.70;;
22172;SDS011;11252;50.596;17.648;2022-10-16T03:13:19;31.90;;;23.53;;
22172;SDS011;11252;50.596;17.648;2022-10-16T03:15:47;38.97;;;24.57;;
22172;SDS011;11252;50.596;17.648;2022-10-16T03:18:14;32.43;;;24.27;;
22172;SDS011;11252;50.596;17.648;2022-10-16T03:20:42;37.77;;;26.73;;
22172;SDS011;11252;50.596;17.648;2022-10-16T03:23:10;35.20;;;24.63;;
22172;SDS011;11252;50.596;17.648;2022-10-16T03:25:38;34.47;;;25.03;;
22172;SDS011;11252;50.596;17.648;2022-10-16T03:28:06;33.43;;;25.37;;
22172;SDS011;11252;50.596;17.648;2022-10-16T03:30:34;37.93;;;25.47;;
22172;SDS011;11252;50.596;17.648;2022-10-16T03:33:02;33.33;;;24.70;;
22172;SDS011;11252;50.596;17.648;2022-10-16T03:35:29;38.90;;;26.30;;
22172;SDS011;11252;50.596;17.648;2022-10-16T03:37:59;33.70;;;26.27;;
22172;SDS011;11252;50.596;17.648;2022-10-16T03:40:26;34.00;;;25.43;;
22172;SDS011;11252;50.596;17.648;2022-10-16T03:42:54;34.53;;;26.27;;
22172;SDS011;11252;50.596;17.648;2022-10-16T03:45:23;37.43;;;25.80;;
22172;SDS011;11252;50.596;17.648;2022-10-16T03:47:51;39.60;;;26.83;;
22172;SDS011;11252;50.596;17.648;2022-10-16T03:50:19;31.43;;;24.77;;
22172;SDS011;11252;50.596;17.648;2022-10-16T03:52:46;36.93;;;26.70;;
22172;SDS011;11252;50.596;17.648;2022-10-16T03:55:14;33.37;;;26.53;;
22172;SDS011;11252;50.596;17.648;2022-10-16T03:57:41;38.20;;;27.13;;
22172;SDS011;11252;50.596;17.648;2022-10-16T04:00:09;39.83;;;27.60;;
22172;SDS011;11252;50.596;17.648;2022-10-16T04:02:37;35.37;;;26.17;;
22172;SDS011;11252;50.596;17.648;2022-10-16T04:05:05;36.40;;;26.90;;
22172;SDS011;11252;50.596;17.648;2022-10-16T04:07:33;36.80;;;27.03;;
22172;SDS011;11252;50.596;17.648;2022-10-16T04:10:00;36.63;;;26.90;;
22172;SDS011;11252;50.596;17.648;2022-10-16T04:12:28;39.43;;;27.03;;
22172;SDS011;11252;50.596;17.648;2022-10-16T04:14:55;35.97;;;27.73;;
22172;SDS011;11252;50.596;17.648;2022-10-16T04:17:23;35.90;;;27.60;;
22172;SDS011;11252;50.596;17.648;2022-10-16T04:19:51;40.27;;;28.57;;
22172;SDS011;11252;50.596;17.648;2022-10-16T04:22:18;35.50;;;27.37;;
22172;SDS011;11252;50.596;17.648;2022-10-16T04:24:45;35.50;;;27.50;;
22172;SDS011;11252;50.596;17.648;2022-10-16T04:27:13;38.97;;;27.83;;
22172;SDS011;11252;50.596;17.648;2022-10-16T04:29:41;37.43;;;28.23;;
22172;SDS011;11252;50.596;17.648;2022-10-16T04:32:08;37.67;;;28.60;;
22172;SDS011;11252;50.596;17.648;2022-10-16T04:34:36;36.90;;;28.13;;
22172;SDS011;11252;50.596;17.648;2022-10-16T04:37:06;36.23;;;28.20;;
22172;SDS011;11252;50.596;17.648;2022-10-16T04:39:33;35.23;;;27.77;;
22172;SDS011;11252;50.596;17.648;2022-10-16T04:42:01;35.53;;;27.63;;
22172;SDS011;11252;50.596;17.648;2022-10-16T04:44:28;34.53;;;27.90;;
22172;SDS011;11252;50.596;17.648;2022-10-16T04:46:56;38.17;;;29.23;;
22172;SDS011;11252;50.596;17.648;2022-10-16T04:49:24;34.10;;;27.50;;
22172;SDS011;11252;50.596;17.648;2022-10-16T04:51:51;33.30;;;27.03;;
22172;SDS011;11252;50.596;17.648;2022-10-16T04:54:18;32.90;;;26.83;;
22172;SDS011;11252;50.596;17.648;2022-10-16T04:56:46;32.13;;;26.10;;
22172;SDS011;11252;50.596;17.648;2022-10-16T04:59:14;33.93;;;27.90;;
22172;SDS011;11252;50.596;17.648;2022-10-16T05:01:42;32.70;;;27.27;;
22172;SDS011;11252;50.596;17.648;2022-10-16T05:04:10;35.60;;;27.57;;
22172;SDS011;11252;50.596;17.648;2022-10-16T05:06:38;30.43;;;25.97;;
22172;SDS011;11252;50.596;17.648;2022-10-16T05:09:05;33.47;;;25.90;;
22172;SDS011;11252;50.596;17.648;2022-10-16T05:11:34;32.40;;;25.20;;
22172;SDS011;11252;50.596;17.648;2022-10-16T05:14:02;31.47;;;25.37;;
22172;SDS011;11252;50.596;17.648;2022-10-16T05:16:30;31.03;;;25.00;;
22172;SDS011;11252;50.596;17.648;2022-10-16T05:18:57;32.10;;;24.27;;
22172;SDS011;11252;50.596;17.648;2022-10-16T05:21:45;31.50;;;23.90;;
22172;SDS011;11252;50.596;17.648;2022-10-16T05:24:12;32.67;;;24.83;;
22172;SDS011;11252;50.596;17.648;2022-10-16T05:26:40;31.70;;;24.63;;
22172;SDS011;11252;50.596;17.648;2022-10-16T05:29:07;28.23;;;23.63;;
22172;SDS011;11252;50.596;17.648;2022-10-16T05:31:35;29.03;;;23.77;;
22172;SDS011;11252;50.596;17.648;2022-10-16T05:34:03;28.00;;;22.93;;
22172;SDS011;11252;50.596;17.648;2022-10-16T05:36:30;31.97;;;24.37;;
22172;SDS011;11252;50.596;17.648;2022-10-16T05:38:57;29.80;;;23.87;;
22172;SDS011;11252;50.596;17.648;2022-10-16T05:41:25;27.07;;;23.23;;
22172;SDS011;11252;50.596;17.648;2022-10-16T05:43:52;29.83;;;23.37;;
22172;SDS011;11252;50.596;17.648;2022-10-16T05:46:20;30.27;;;23.37;;
22172;SDS011;11252;50.596;17.648;2022-10-16T05:48:47;34.53;;;23.90;;
22172;SDS011;11252;50.596;17.648;2022-10-16T05:51:15;31.80;;;24.80;;
22172;SDS011;11252;50.596;17.648;2022-10-16T05:53:43;26.17;;;22.53;;
22172;SDS011;11252;50.596;17.648;2022-10-16T05:56:11;27.27;;;22.80;;
22172;SDS011;11252;50.596;17.648;2022-10-16T05:58:39;30.63;;;24.40;;
22172;SDS011;11252;50.596;17.648;2022-10-16T06:01:10;30.97;;;23.70;;
22172;SDS011;11252;50.596;17.648;2022-10-16T06:03:42;27.93;;;23.00;;
22172;SDS011;11252;50.596;17.648;2022-10-16T06:06:13;28.60;;;22.70;;
22172;SDS011;11252;50.596;17.648;2022-10-16T06:08:43;27.60;;;22.87;;
22172;SDS011;11252;50.596;17.648;2022-10-16T06:11:14;26.70;;;22.27;;
22172;SDS011;11252;50.596;17.648;2022-10-16T06:13:44;26.00;;;22.27;;
22172;SDS011;11252;50.596;17.648;2022-10-16T06:16:12;29.70;;;23.53;;
22172;SDS011;11252;50.596;17.648;2022-10-16T06:18:40;31.70;;;23.47;;
22172;SDS011;11252;50.596;17.648;2022-10-16T06:21:08;31.40;;;24.97;;
22172;SDS011;11252;50.596;17.648;2022-10-16T06:23:38;30.13;;;24.83;;
22172;SDS011;11252;50.596;17.648;2022-10-16T06:26:09;33.57;;;24.60;;
22172;SDS011;11252;50.596;17.648;2022-10-16T06:28:38;30.50;;;25.73;;
22172;SDS011;11252;50.596;17.648;2022-10-16T06:31:07;28.97;;;24.33;;
22172;SDS011;11252;50.596;17.648;2022-10-16T06:33:36;28.00;;;24.37;;
22172;SDS011;11252;50.596;17.648;2022-10-16T06:36:05;30.27;;;24.33;;
22172;SDS011;11252;50.596;17.648;2022-10-16T06:38:36;30.33;;;24.60;;
22172;SDS011;11252;50.596;17.648;2022-10-16T06:41:04;27.30;;;23.10;;
22172;SDS011;11252;50.596;17.648;2022-10-16T06:43:32;27.00;;;23.07;;
22172;SDS011;11252;50.596;17.648;2022-10-16T06:46:04;33.23;;;26.20;;
22172;SDS011;11252;50.596;17.648;2022-10-16T06:48:37;32.27;;;25.57;;
22172;SDS011;11252;50.596;17.648;2022-10-16T06:51:06;28.30;;;24.27;;
22172;SDS011;11252;50.596;17.648;2022-10-16T06:53:37;30.07;;;24.43;;
22172;SDS011;11252;50.596;17.648;2022-10-16T06:56:27;34.13;;;26.00;;
22172;SDS011;11252;50.596;17.648;2022-10-16T06:58:56;31.60;;;26.77;;
22172;SDS011;11252;50.596;17.648;2022-10-16T07:01:25;35.17;;;26.93;;
22172;SDS011;11252;50.596;17.648;2022-10-16T07:03:53;32.93;;;26.73;;
22172;SDS011;11252;50.596;17.648;2022-10-16T07:06:23;32.77;;;26.53;;
22172;SDS011;11252;50.596;17.648;2022-10-16T07:08:53;32.17;;;25.70;;
22172;SDS011;11252;50.596;17.648;2022-10-16T07:11:22;31.37;;;26.07;;
22172;SDS011;11252;50.596;17.648;2022-10-16T07:13:50;29.90;;;25.57;;
22172;SDS011;11252;50.596;17.648;2022-10-16T07:16:25;32.10;;;24.87;;
22172;SDS011;11252;50.596;17.648;2022-10-16T07:18:59;27.83;;;24.83;;
22172;SDS011;11252;50.596;17.648;2022-10-16T07:21:32;27.00;;;24.07;;
22172;SDS011;11252;50.596;17.648;2022-10-16T07:24:05;27.37;;;24.40;;
22172;SDS011;11252;50.596;17.648;2022-10-16T07:26:34;30.00;;;25.87;;
22172;SDS011;11252;50.596;17.648;2022-10-16T07:29:07;27.60;;;23.20;;
22172;SDS011;11252;50.596;17.648;2022-10-16T07:31:42;25.23;;;22.07;;
22172;SDS011;11252;50.596;17.648;2022-10-16T07:34:11;27.33;;;22.03;;
22172;SDS011;11252;50.596;17.648;2022-10-16T07:36:40;23.90;;;21.03;;
22172;SDS011;11252;50.596;17.648;2022-10-16T07:39:13;25.03;;;21.03;;
22172;SDS011;11252;50.596;17.648;2022-10-16T07:41:40;23.83;;;21.30;;
22172;SDS011;11252;50.596;17.648;2022-10-16T07:44:08;28.17;;;23.87;;
22172;SDS011;11252;50.596;17.648;2022-10-16T07:46:35;23.70;;;19.90;;
22172;SDS011;11252;50.596;17.648;2022-10-16T07:49:03;20.17;;;17.97;;
22172;SDS011;11252;50.596;17.648;2022-10-16T07:51:30;20.23;;;18.10;;
22172;SDS011;11252;50.596;17.648;2022-10-16T07:53:58;19.13;;;17.10;;
22172;SDS011;11252;50.596;17.648;2022-10-16T07:56:26;21.87;;;18.13;;
22172;SDS011;11252;50.596;17.648;2022-10-16T07:58:53;21.03;;;16.73;;
22172;SDS011;11252;50.596;17.648;2022-10-16T08:01:21;18.97;;;16.97;;
22172;SDS011;11252;50.596;17.648;2022-10-16T08:03:49;18.77;;;16.07;;
22172;SDS011;11252;50.596;17.648;2022-10-16T08:06:19;19.97;;;16.77;;
22172;SDS011;11252;50.596;17.648;2022-10-16T08:08:54;20.07;;;16.17;;
22172;SDS011;11252;50.596;17.648;2022-10-16T08:11:22;16.77;;;15.07;;
22172;SDS011;11252;50.596;17.648;2022-10-16T08:13:52;21.00;;;16.40;;
22172;SDS011;11252;50.596;17.648;2022-10-16T08:16:22;15.70;;;14.10;;
22172;SDS011;11252;50.596;17.648;2022-10-16T08:18:50;13.80;;;12.33;;
22172;SDS011;11252;50.596;17.648;2022-10-16T08:21:22;13.93;;;12.47;;
22172;SDS011;11252;50.596;17.648;2022-10-16T08:23:52;14.13;;;12.73;;
22172;SDS011;11252;50.596;17.648;2022-10-16T08:26:24;18.10;;;12.83;;
22172;SDS011;11252;50.596;17.648;2022-10-16T08:28:53;16.80;;;15.10;;
22172;SDS011;11252;50.596;17.648;2022-10-16T08:31:22;17.00;;;14.33;;
22172;SDS011;11252;50.596;17.648;2022-10-16T08:33:50;16.20;;;14.33;;
22172;SDS011;11252;50.596;17.648;2022-10-16T08:36:19;18.30;;;13.33;;
22172;SDS011;11252;50.596;17.648;2022-10-16T08:38:48;14.77;;;12.27;;
22172;SDS011;11252;50.596;17.648;2022-10-16T08:41:27;14.27;;;11.97;;
22172;SDS011;11252;50.596;17.648;2022-10-16T08:50:31;14.17;;;12.67;;
22172;SDS011;11252;50.596;17.648;2022-10-16T08:52:41;18.17;;;16.30;;
22172;SDS011;11252;50.596;17.648;2022-10-16T08:58:20;17.83;;;15.67;;
22172;SDS011;11252;50.596;17.648;2022-10-16T09:00:51;18.70;;;16.63;;
22172;SDS011;11252;50.596;17.648;2022-10-16T09:03:24;19.97;;;14.73;;
22172;SDS011;11252;50.596;17.648;2022-10-16T09:09:18;17.87;;;15.97;;
22172;SDS011;11252;50.596;17.648;2022-10-16T09:17:53;18.90;;;16.73;;
22172;SDS011;11252;50.596;17.648;2022-10-16T09:21:23;20.00;;;16.57;;
22172;SDS011;11252;50.596;17.648;2022-10-16T09:23:43;18.97;;;16.13;;
22172;SDS011;11252;50.596;17.648;2022-10-16T09:26:13;13.80;;;12.40;;
22172;SDS011;11252;50.596;17.648;2022-10-16T09:28:44;14.63;;;13.10;;
22172;SDS011;11252;50.596;17.648;2022-10-16T09:31:21;13.70;;;12.30;;
22172;SDS011;11252;50.596;17.648;2022-10-16T09:33:54;14.77;;;12.20;;
22172;SDS011;11252;50.596;17.648;2022-10-16T09:36:27;14.10;;;12.17;;
22172;SDS011;11252;50.596;17.648;2022-10-16T09:39:06;15.50;;;12.10;;
22172;SDS011;11252;50.596;17.648;2022-10-16T09:41:41;14.60;;;10.67;;
22172;SDS011;11252;50.596;17.648;2022-10-16T09:44:24;13.80;;;12.33;;
22172;SDS011;11252;50.596;17.648;2022-10-16T09:47:04;14.53;;;12.20;;
22172;SDS011;11252;50.596;17.648;2022-10-16T09:52:24;10.40;;;9.40;;
22172;SDS011;11252;50.596;17.648;2022-10-16T09:54:56;11.20;;;10.10;;
22172;SDS011;11252;50.596;17.648;2022-10-16T09:57:28;12.47;;;10.17;;
22172;SDS011;11252;50.596;17.648;2022-10-16T09:59:58;11.57;;;10.47;;
22172;SDS011;11252;50.596;17.648;2022-10-16T10:04:57;14.67;;;11.30;;
22172;SDS011;11252;50.596;17.648;2022-10-16T10:07:26;12.50;;;11.10;;
22172;SDS011;11252;50.596;17.648;2022-10-16T10:10:04;11.07;;;10.07;;
22172;SDS011;11252;50.596;17.648;2022-10-16T10:12:33;11.13;;;9.97;;
22172;SDS011;11252;50.596;17.648;2022-10-16T10:15:04;12.07;;;10.83;;
22172;SDS011;11252;50.596;17.648;2022-10-16T10:17:52;13.30;;;11.90;;
22172;SDS011;11252;50.596;17.648;2022-10-16T10:20:23;12.43;;;10.60;;
22172;SDS011;11252;50.596;17.648;2022-10-16T10:22:55;13.17;;;11.13;;
22172;SDS011;11252;50.596;17.648;2022-10-16T10:25:28;11.23;;;10.07;;
22172;SDS011;11252;50.596;17.648;2022-10-16T10:34:32;14.17;;;10.87;;
22172;SDS011;11252;50.596;17.648;2022-10-16T10:37:26;15.03;;;11.83;;
22172;SDS011;11252;50.596;17.648;2022-10-16T10:45:43;7.97;;;7.17;;
22172;SDS011;11252;50.596;17.648;2022-10-16T10:54:11;9.53;;;6.93;;
22172;SDS011;11252;50.596;17.648;2022-10-16T10:57:02;7.43;;;6.73;;
22172;SDS011;11252;50.596;17.648;2022-10-16T11:08:43;8.90;;;8.00;;
22172;SDS011;11252;50.596;17.648;2022-10-16T11:11:03;9.13;;;8.23;;
22172;SDS011;11252;50.596;17.648;2022-10-16T11:16:13;8.87;;;7.97;;
22172;SDS011;11252;50.596;17.648;2022-10-16T11:18:55;10.03;;;8.50;;
22172;SDS011;11252;50.596;17.648;2022-10-16T11:21:36;9.03;;;8.00;;
22172;SDS011;11252;50.596;17.648;2022-10-16T11:24:16;9.93;;;8.90;;
22172;SDS011;11252;50.596;17.648;2022-10-16T11:26:49;9.27;;;8.47;;
22172;SDS011;11252;50.596;17.648;2022-10-16T11:29:25;8.57;;;7.78;;
22172;SDS011;11252;50.596;17.648;2022-10-16T11:32:01;8.47;;;7.03;;
22172;SDS011;11252;50.596;17.648;2022-10-16T11:34:41;8.07;;;7.37;;
22172;SDS011;11252;50.596;17.648;2022-10-16T11:37:17;7.60;;;6.80;;
22172;SDS011;11252;50.596;17.648;2022-10-16T11:39:56;8.88;;;6.80;;
22172;SDS011;11252;50.596;17.648;2022-10-16T11:42:32;7.53;;;6.90;;
22172;SDS011;11252;50.596;17.648;2022-10-16T11:45:15;7.05;;;6.45;;
22172;SDS011;11252;50.596;17.648;2022-10-16T11:50:31;8.35;;;7.32;;
22172;SDS011;11252;50.596;17.648;2022-10-16T11:56:24;8.55;;;7.70;;
22172;SDS011;11252;50.596;17.648;2022-10-16T12:01:40;10.50;;;7.67;;
22172;SDS011;11252;50.596;17.648;2022-10-16T12:07:08;9.45;;;8.00;;
22172;SDS011;11252;50.596;17.648;2022-10-16T12:09:39;8.43;;;7.63;;
22172;SDS011;11252;50.596;17.648;2022-10-16T12:12:26;9.60;;;8.48;;
22172;SDS011;11252;50.596;17.648;2022-10-16T12:15:22;10.83;;;9.70;;
22172;SDS011;11252;50.596;17.648;2022-10-16T12:18:20;11.10;;;10.07;;
22172;SDS011;11252;50.596;17.648;2022-10-16T12:20:55;17.33;;;12.03;;
22172;SDS011;11252;50.596;17.648;2022-10-16T12:23:25;19.07;;;15.93;;
22172;SDS011;11252;50.596;17.648;2022-10-16T12:25:54;13.73;;;10.33;;
22172;SDS011;11252;50.596;17.648;2022-10-16T12:28:27;10.93;;;8.93;;
22172;SDS011;11252;50.596;17.648;2022-10-16T12:31:06;15.00;;;12.17;;
22172;SDS011;11252;50.596;17.648;2022-10-16T12:33:37;27.87;;;21.17;;
22172;SDS011;11252;50.596;17.648;2022-10-16T12:38:54;13.60;;;12.20;;
22172;SDS011;11252;50.596;17.648;2022-10-16T12:41:29;28.20;;;25.17;;
22172;SDS011;11252;50.596;17.648;2022-10-16T12:44:03;10.27;;;9.35;;
22172;SDS011;11252;50.596;17.648;2022-10-16T12:51:39;8.75;;;7.95;;
22172;SDS011;11252;50.596;17.648;2022-10-16T12:54:12;7.85;;;7.15;;
22172;SDS011;11252;50.596;17.648;2022-10-16T13:07:57;9.38;;;8.10;;
22172;SDS011;11252;50.596;17.648;2022-10-16T13:11:00;8.50;;;7.70;;
22172;SDS011;11252;50.596;17.648;2022-10-16T13:16:09;7.47;;;6.75;;
22172;SDS011;11252;50.596;17.648;2022-10-16T13:24:49;14.60;;;9.68;;
22172;SDS011;11252;50.596;17.648;2022-10-16T13:30:02;10.98;;;8.45;;
22172;SDS011;11252;50.596;17.648;2022-10-16T13:32:38;8.48;;;7.60;;
22172;SDS011;11252;50.596;17.648;2022-10-16T13:35:19;9.70;;;8.38;;
22172;SDS011;11252;50.596;17.648;2022-10-16T13:37:49;10.90;;;8.20;;
22172;SDS011;11252;50.596;17.648;2022-10-16T13:40:18;9.35;;;8.45;;
22172;SDS011;11252;50.596;17.648;2022-10-16T13:42:49;13.23;;;11.88;;
22172;SDS011;11252;50.596;17.648;2022-10-16T13:45:21;12.85;;;11.60;;
22172;SDS011;11252;50.596;17.648;2022-10-16T13:48:01;12.55;;;11.38;;
22172;SDS011;11252;50.596;17.648;2022-10-16T13:50:35;12.40;;;10.38;;
22172;SDS011;11252;50.596;17.648;2022-10-16T13:53:07;17.25;;;14.93;;
22172;SDS011;11252;50.596;17.648;2022-10-16T13:55:40;16.33;;;11.93;;
22172;SDS011;11252;50.596;17.648;2022-10-16T13:58:08;30.48;;;24.33;;
22172;SDS011;11252;50.596;17.648;2022-10-16T14:00:41;13.18;;;11.63;;
22172;SDS011;11252;50.596;17.648;2022-10-16T14:03:25;13.63;;;11.52;;
22172;SDS011;11252;50.596;17.648;2022-10-16T14:05:56;12.25;;;10.88;;
22172;SDS011;11252;50.596;17.648;2022-10-16T14:08:27;15.10;;;11.70;;
22172;SDS011;11252;50.596;17.648;2022-10-16T14:10:59;22.25;;;17.23;;
22172;SDS011;11252;50.596;17.648;2022-10-16T14:13:39;17.15;;;13.45;;
22172;SDS011;11252;50.596;17.648;2022-10-16T14:16:16;14.77;;;13.02;;
22172;SDS011;11252;50.596;17.648;2022-10-16T14:18:55;13.75;;;12.38;;
22172;SDS011;11252;50.596;17.648;2022-10-16T14:21:23;13.43;;;12.02;;
22172;SDS011;11252;50.596;17.648;2022-10-16T14:23:52;13.13;;;11.85;;
22172;SDS011;11252;50.596;17.648;2022-10-16T14:26:22;14.82;;;12.75;;
22172;SDS011;11252;50.596;17.648;2022-10-16T14:29:06;14.52;;;12.45;;
22172;SDS011;11252;50.596;17.648;2022-10-16T14:31:41;15.32;;;13.13;;
22172;SDS011;11252;50.596;17.648;2022-10-16T14:34:31;17.17;;;14.40;;
22172;SDS011;11252;50.596;17.648;2022-10-16T14:39:57;16.05;;;14.35;;
22172;SDS011;11252;50.596;17.648;2022-10-16T14:42:24;17.58;;;13.68;;
22172;SDS011;11252;50.596;17.648;2022-10-16T14:44:53;14.50;;;12.77;;
22172;SDS011;11252;50.596;17.648;2022-10-16T14:47:22;14.27;;;12.77;;
22172;SDS011;11252;50.596;17.648;2022-10-16T14:49:54;15.95;;;13.63;;
22172;SDS011;11252;50.596;17.648;2022-10-16T14:52:24;21.42;;;19.15;;
22172;SDS011;11252;50.596;17.648;2022-10-16T14:54:51;23.40;;;18.73;;
22172;SDS011;11252;50.596;17.648;2022-10-16T14:57:24;29.02;;;25.02;;
22172;SDS011;11252;50.596;17.648;2022-10-16T14:59:55;24.10;;;21.35;;
22172;SDS011;11252;50.596;17.648;2022-10-16T15:02:30;32.08;;;26.02;;
22172;SDS011;11252;50.596;17.648;2022-10-16T15:05:13;34.90;;;29.38;;
22172;SDS011;11252;50.596;17.648;2022-10-16T15:07:51;25.58;;;21.00;;
22172;SDS011;11252;50.596;17.648;2022-10-16T15:10:22;20.38;;;16.83;;
22172;SDS011;11252;50.596;17.648;2022-10-16T15:12:52;20.50;;;16.15;;
22172;SDS011;11252;50.596;17.648;2022-10-16T15:18:04;21.40;;;19.17;;
22172;SDS011;11252;50.596;17.648;2022-10-16T15:20:35;22.00;;;18.13;;
22172;SDS011;11252;50.596;17.648;2022-10-16T15:23:06;25.25;;;20.05;;
22172;SDS011;11252;50.596;17.648;2022-10-16T15:25:45;26.87;;;22.87;;
22172;SDS011;11252;50.596;17.648;2022-10-16T15:28:16;27.90;;;23.67;;
22172;SDS011;11252;50.596;17.648;2022-10-16T15:30:46;33.97;;;26.50;;
22172;SDS011;11252;50.596;17.648;2022-10-16T15:33:17;34.30;;;25.87;;
22172;SDS011;11252;50.596;17.648;2022-10-16T15:35:50;52.57;;;36.20;;
22172;SDS011;11252;50.596;17.648;2022-10-16T15:38:20;44.40;;;33.83;;
22172;SDS011;11252;50.596;17.648;2022-10-16T15:40:48;38.33;;;30.07;;
22172;SDS011;11252;50.596;17.648;2022-10-16T15:43:16;45.93;;;36.33;;
22172;SDS011;11252;50.596;17.648;2022-10-16T15:45:47;37.80;;;27.23;;
22172;SDS011;11252;50.596;17.648;2022-10-16T15:48:30;29.87;;;23.67;;
22172;SDS011;11252;50.596;17.648;2022-10-16T15:50:59;28.57;;;23.70;;
22172;SDS011;11252;50.596;17.648;2022-10-16T15:53:26;42.70;;;29.07;;
22172;SDS011;11252;50.596;17.648;2022-10-16T15:55:54;38.67;;;29.77;;
22172;SDS011;11252;50.596;17.648;2022-10-16T15:58:21;32.13;;;23.33;;
22172;SDS011;11252;50.596;17.648;2022-10-16T16:00:58;97.40;;;55.97;;
22172;SDS011;11252;50.596;17.648;2022-10-16T16:03:28;126.63;;;75.67;;
22172;SDS011;11252;50.596;17.648;2022-10-16T16:05:56;97.13;;;60.47;;
22172;SDS011;11252;50.596;17.648;2022-10-16T16:08:23;114.40;;;64.80;;
22172;SDS011;11252;50.596;17.648;2022-10-16T16:11:01;59.20;;;37.80;;
22172;SDS011;11252;50.596;17.648;2022-10-16T16:13:37;63.83;;;41.60;;
22172;SDS011;11252;50.596;17.648;2022-10-16T16:16:05;90.03;;;53.47;;
22172;SDS011;11252;50.596;17.648;2022-10-16T16:18:35;28.93;;;22.93;;
22172;SDS011;11252;50.596;17.648;2022-10-16T16:21:03;108.77;;;72.27;;
22172;SDS011;11252;50.596;17.648;2022-10-16T16:23:32;59.43;;;42.43;;
22172;SDS011;11252;50.596;17.648;2022-10-16T16:28:53;58.67;;;41.83;;
22172;SDS011;11252;50.596;17.648;2022-10-16T16:31:26;48.23;;;37.50;;
22172;SDS011;11252;50.596;17.648;2022-10-16T16:33:55;44.03;;;33.50;;
22172;SDS011;11252;50.596;17.648;2022-10-16T16:36:24;38.53;;;29.37;;
22172;SDS011;11252;50.596;17.648;2022-10-16T16:38:52;50.10;;;36.43;;
22172;SDS011;11252;50.596;17.648;2022-10-16T16:41:21;49.90;;;33.03;;
22172;SDS011;11252;50.596;17.648;2022-10-16T16:43:51;63.90;;;41.80;;
22172;SDS011;11252;50.596;17.648;2022-10-16T16:46:20;78.63;;;47.73;;